createdAt,value
2018-05-24T00:00:18.981Z,50.80
2018-05-24T00:03:16.825Z,50.80
2018-05-24T00:06:14.786Z,52.10
2018-05-24T00:09:12.731Z,52.10
2018-05-24T00:12:09.892Z,52.70
2018-05-24T00:15:07.716Z,52.70
2018-05-24T00:18:05.386Z,52.90
2018-05-24T00:21:03.400Z,52.90
2018-05-24T00:24:01.057Z,52.70
2018-05-24T00:26:58.998Z,52.90
2018-05-24T00:29:56.831Z,53.20
2018-05-24T00:32:54.640Z,53.10
2018-05-24T00:35:52.474Z,53.20
2018-05-24T00:38:50.262Z,53.20
2018-05-24T00:41:48.043Z,52.70
2018-05-24T00:44:45.669Z,52.80
2018-05-24T00:47:43.419Z,53.40
2018-05-24T00:50:41.321Z,54.30
2018-05-24T00:53:39.204Z,54.20
2018-05-24T00:56:36.907Z,54.80
2018-05-24T00:59:42.996Z,54.80
2018-05-24T01:02:40.935Z,55.40
2018-05-24T01:05:39.038Z,55.20
2018-05-24T01:08:36.969Z,56.10
2018-05-24T01:11:34.093Z,55.50
2018-05-24T01:14:32.012Z,55.30
2018-05-24T01:17:29.782Z,55.60
2018-05-24T01:20:27.489Z,56.00
2018-05-24T01:23:25.197Z,56.10
2018-05-24T01:26:23.042Z,57.00
2018-05-24T01:29:21.166Z,57.40
2018-05-24T01:32:19.015Z,57.40
2018-05-24T01:35:16.885Z,58.00
2018-05-24T01:38:14.639Z,58.80
2018-05-24T01:41:12.471Z,58.90
2018-05-24T01:44:10.226Z,59.00
2018-05-24T01:47:07.950Z,60.60
2018-05-24T01:50:05.920Z,60.20
2018-05-24T01:53:04.265Z,61.00
2018-05-24T01:56:02.672Z,61.40
2018-05-24T01:59:00.791Z,61.30
2018-05-24T02:01:58.562Z,62.20
2018-05-24T02:04:56.199Z,63.00
2018-05-24T02:07:53.192Z,63.40
2018-05-24T02:10:50.524Z,64.00
2018-05-24T02:13:49.003Z,64.30
2018-05-24T02:16:47.043Z,64.10
2018-05-24T02:19:44.883Z,64.00
2018-05-24T02:22:42.786Z,64.70
2018-05-24T02:25:40.730Z,65.00
2018-05-24T02:28:38.657Z,65.50
2018-05-24T02:31:36.938Z,66.70
2018-05-24T02:34:35.538Z,67.70
2018-05-24T02:37:34.335Z,67.20
2018-05-24T02:40:31.664Z,67.10
2018-05-24T02:43:28.729Z,67.70
2018-05-24T02:46:26.754Z,67.90
2018-05-24T02:49:23.936Z,68.70
2018-05-24T02:52:21.910Z,68.40
2018-05-24T02:55:19.824Z,70.10
2018-05-24T02:58:17.629Z,69.30
2018-05-24T03:01:15.466Z,69.20
2018-05-24T03:04:13.341Z,69.40
2018-05-24T03:07:10.990Z,69.70
2018-05-24T03:10:08.671Z,71.10
2018-05-24T03:13:06.500Z,71.80
2018-05-24T03:16:04.097Z,71.90
2018-05-24T03:19:01.975Z,73.20
2018-05-24T03:21:59.109Z,73.10
2018-05-24T03:24:56.251Z,73.70
2018-05-24T03:27:53.590Z,73.80
2018-05-24T03:30:51.569Z,73.90
2018-05-24T03:33:49.192Z,73.80
2018-05-24T03:36:47.089Z,74.80
2018-05-24T03:39:44.940Z,75.50
2018-05-24T03:42:42.803Z,76.40
2018-05-24T03:45:40.702Z,76.80
2018-05-24T03:48:37.986Z,77.10
2018-05-24T03:51:35.823Z,77.40
2018-05-24T03:54:33.125Z,77.50
2018-05-24T03:57:30.364Z,77.90
2018-05-24T04:00:40.526Z,79.30
2018-05-24T04:04:02.750Z,79.30
2018-05-24T04:07:00.030Z,81.00
2018-05-24T04:09:58.101Z,80.10
2018-05-24T04:12:55.921Z,80.10
2018-05-24T04:15:53.192Z,79.50
2018-05-24T04:18:50.276Z,79.10
2018-05-24T04:21:47.293Z,79.80
2018-05-24T04:24:45.084Z,80.20
2018-05-24T04:27:42.978Z,81.00
2018-05-24T04:30:40.786Z,81.90
2018-05-24T04:33:37.881Z,81.90
2018-05-24T04:36:34.995Z,82.00
2018-05-24T04:39:32.829Z,81.90
2018-05-24T04:42:30.787Z,80.10
2018-05-24T04:45:28.431Z,80.10
2018-05-24T04:48:26.449Z,79.20
2018-05-24T04:51:25.092Z,79.70
2018-05-24T04:54:22.209Z,79.70
2018-05-24T04:57:20.045Z,80.00
2018-05-24T05:00:18.166Z,81.00
2018-05-24T05:03:15.233Z,80.80
2018-05-24T05:06:13.178Z,80.20
2018-05-24T05:09:11.154Z,80.70
2018-05-24T05:12:09.002Z,81.10
2018-05-24T05:15:06.723Z,80.10
2018-05-24T05:18:04.609Z,81.20
2018-05-24T05:21:02.326Z,80.60
2018-05-24T05:23:59.382Z,79.80
2018-05-24T05:26:57.278Z,79.80
2018-05-24T05:29:55.241Z,79.80
2018-05-24T05:32:52.495Z,78.50
2018-05-24T05:35:50.162Z,79.30
2018-05-24T05:38:47.223Z,78.30
2018-05-24T05:41:45.041Z,77.10
2018-05-24T05:44:43.884Z,75.50
2018-05-24T05:47:41.057Z,74.70
2018-05-24T05:50:39.947Z,74.10
2018-05-24T05:53:37.801Z,74.10
2018-05-24T05:56:35.508Z,72.50
2018-05-24T05:59:33.913Z,71.70
2018-05-24T06:02:31.390Z,71.70
2018-05-24T06:05:28.785Z,71.30
2018-05-24T06:08:25.947Z,69.90
2018-05-24T06:11:24.011Z,67.30
2018-05-24T06:14:21.155Z,65.60
2018-05-24T06:17:18.831Z,61.00
2018-05-24T06:20:16.535Z,59.80
2018-05-24T06:23:14.532Z,58.20
2018-05-24T06:26:12.707Z,56.10
2018-05-24T06:29:10.509Z,52.90
2018-05-24T06:32:08.400Z,52.90
2018-05-24T06:35:06.462Z,52.80
2018-05-24T06:38:03.721Z,52.00
2018-05-24T06:41:01.684Z,49.90
2018-05-24T06:43:59.538Z,48.70
2018-05-24T06:46:57.533Z,48.60
2018-05-24T06:49:55.392Z,47.80
2018-05-24T06:52:53.305Z,44.50
2018-05-24T06:55:51.216Z,39.90
2018-05-24T06:58:50.888Z,39.00
2018-05-24T07:01:49.713Z,37.90
2018-05-24T07:04:47.631Z,37.20
2018-05-24T07:07:45.372Z,37.20
2018-05-24T07:10:42.493Z,37.50
2018-05-24T07:13:40.104Z,37.50
2018-05-24T07:16:38.094Z,37.90
2018-05-24T07:19:36.119Z,38.80
2018-05-24T07:22:33.976Z,36.50
2018-05-24T07:25:32.070Z,37.20
2018-05-24T07:28:30.128Z,36.20
2018-05-24T07:31:27.360Z,35.50
2018-05-24T07:34:24.359Z,35.40
2018-05-24T07:37:22.499Z,34.20
2018-05-24T07:40:20.381Z,34.10
2018-05-24T07:43:18.747Z,33.30
2018-05-24T07:46:16.752Z,33.20
2018-05-24T07:49:14.581Z,32.90
2018-05-24T07:52:11.659Z,31.60
2018-05-24T07:55:09.703Z,32.20
2018-05-24T07:58:07.624Z,32.30
2018-05-24T08:01:05.473Z,33.00
2018-05-24T08:04:03.259Z,32.00
2018-05-24T08:07:01.824Z,31.30
2018-05-24T08:09:58.818Z,31.30
2018-05-24T08:12:56.863Z,31.20
2018-05-24T08:15:54.712Z,30.80
2018-05-24T08:18:52.443Z,31.60
2018-05-24T08:21:50.620Z,32.50
2018-05-24T08:24:48.392Z,31.50
2018-05-24T08:27:46.381Z,31.20
2018-05-24T08:30:45.228Z,30.70
2018-05-24T08:33:42.910Z,30.80
2018-05-24T08:36:40.854Z,30.40
2018-05-24T08:39:38.665Z,30.50
2018-05-24T08:42:35.759Z,29.40
2018-05-24T08:45:33.812Z,29.00
2018-05-24T08:48:31.848Z,28.90
2018-05-24T08:51:29.789Z,28.60
2018-05-24T08:54:27.573Z,28.60
2018-05-24T08:57:25.489Z,28.90
2018-05-24T09:00:23.211Z,28.80
2018-05-24T09:03:22.459Z,28.40
2018-05-24T09:06:19.628Z,28.40
2018-05-24T09:09:17.006Z,28.30
2018-05-24T09:12:15.011Z,28.10
2018-05-24T09:15:13.055Z,27.00
2018-05-24T09:18:12.565Z,27.00
2018-05-24T09:21:10.771Z,27.50
2018-05-24T09:24:09.568Z,27.60
2018-05-24T09:27:07.364Z,27.40
2018-05-24T09:30:05.359Z,27.40
2018-05-24T09:33:03.173Z,26.90
2018-05-24T09:36:01.170Z,27.00
2018-05-24T09:38:58.946Z,27.00
2018-05-24T09:41:56.268Z,27.20
2018-05-24T09:44:54.228Z,28.10
2018-05-24T09:47:52.491Z,27.40
2018-05-24T09:50:50.201Z,27.30
2018-05-24T09:53:47.942Z,27.20
2018-05-24T09:56:45.976Z,26.80
2018-05-24T09:59:43.811Z,26.60
2018-05-24T10:02:41.995Z,26.20
2018-05-24T10:05:40.573Z,26.50
2018-05-24T10:08:38.750Z,26.40
2018-05-24T10:11:35.887Z,26.30
2018-05-24T10:14:33.848Z,26.00
2018-05-24T10:17:31.537Z,26.30
2018-05-24T10:20:29.555Z,26.00
2018-05-24T10:23:27.160Z,25.20
2018-05-24T10:26:24.296Z,24.60
2018-05-24T10:29:21.427Z,24.90
2018-05-24T10:32:19.192Z,25.60
2018-05-24T10:35:16.372Z,25.40
2018-05-24T10:38:13.340Z,25.20
2018-05-24T10:41:10.870Z,25.10
2018-05-24T10:44:08.701Z,24.80
2018-05-24T10:47:06.905Z,25.00
2018-05-24T10:50:04.641Z,25.00
2018-05-24T10:53:02.424Z,24.10
2018-05-24T10:55:59.528Z,24.10
2018-05-24T10:58:56.717Z,23.10
2018-05-24T11:01:54.704Z,23.20
2018-05-24T11:04:52.645Z,23.60
2018-05-24T11:07:49.907Z,23.50
2018-05-24T11:10:46.880Z,23.10
2018-05-24T11:13:44.701Z,23.30
2018-05-24T11:16:42.602Z,22.50
2018-05-24T11:19:40.269Z,23.60
2018-05-24T11:22:38.220Z,24.30
2018-05-24T11:25:36.138Z,22.90
2018-05-24T11:28:34.178Z,22.90
2018-05-24T11:31:31.964Z,23.00
2018-05-24T11:34:29.755Z,22.80
2018-05-24T11:37:26.776Z,22.90
2018-05-24T11:40:24.731Z,23.30
2018-05-24T11:43:21.924Z,22.70
2018-05-24T11:46:19.929Z,22.60
2018-05-24T11:49:17.756Z,23.40
2018-05-24T11:52:14.914Z,23.30
2018-05-24T11:55:12.004Z,23.50
2018-05-24T11:58:09.041Z,23.70
2018-05-24T12:01:06.871Z,23.80
2018-05-24T12:04:04.813Z,24.40
2018-05-24T12:07:02.817Z,24.40
2018-05-24T12:09:59.822Z,24.40
2018-05-24T12:12:56.897Z,24.90
2018-05-24T12:15:54.801Z,24.90
2018-05-24T12:18:52.767Z,25.60
2018-05-24T12:21:50.652Z,25.60
2018-05-24T12:24:48.410Z,25.70
2018-05-24T12:27:46.592Z,25.10
2018-05-24T12:30:43.816Z,25.00
2018-05-24T12:33:41.079Z,25.40
2018-05-24T12:36:38.040Z,25.70
2018-05-24T12:39:36.741Z,25.80
2018-05-24T12:42:34.737Z,25.70
2018-05-24T12:45:33.583Z,25.40
2018-05-24T12:48:31.984Z,25.60
2018-05-24T12:51:29.547Z,26.00
2018-05-24T12:54:27.474Z,26.00
2018-05-24T12:57:24.709Z,26.40
2018-05-24T13:00:22.605Z,26.10
2018-05-24T13:03:20.579Z,25.70
2018-05-24T13:06:18.635Z,25.20
2018-05-24T13:09:17.093Z,25.60
2018-05-24T13:12:14.232Z,25.60
2018-05-24T13:15:11.400Z,25.90
2018-05-24T13:18:09.174Z,25.70
2018-05-24T13:21:06.166Z,27.00
2018-05-24T13:24:03.197Z,26.50
2018-05-24T13:27:01.320Z,26.90
2018-05-24T13:29:59.073Z,26.90
2018-05-24T13:32:56.209Z,27.00
2018-05-24T13:35:54.127Z,27.00
2018-05-24T13:38:51.916Z,27.10
2018-05-24T13:41:49.509Z,26.60
2018-05-24T13:44:47.561Z,27.20
2018-05-24T13:47:46.428Z,27.80
2018-05-24T13:50:44.220Z,27.70
2018-05-24T13:53:42.024Z,27.60
2018-05-24T13:56:40.825Z,27.50
2018-05-24T13:59:38.638Z,27.30
2018-05-24T14:02:36.581Z,27.60
2018-05-24T14:05:34.365Z,27.40
2018-05-24T14:08:32.148Z,27.10
2018-05-24T14:11:29.933Z,28.10
2018-05-24T14:14:28.070Z,28.50
2018-05-24T14:17:26.852Z,28.80
2018-05-24T14:20:23.875Z,28.80
2018-05-24T14:23:22.311Z,28.90
2018-05-24T14:26:19.795Z,28.90
2018-05-24T14:29:17.475Z,29.00
2018-05-24T14:32:15.015Z,29.00
2018-05-24T14:35:12.890Z,29.00
2018-05-24T14:38:10.536Z,28.70
2018-05-24T14:41:07.552Z,28.60
2018-05-24T14:44:05.675Z,29.10
2018-05-24T14:47:03.407Z,29.20
2018-05-24T14:50:02.010Z,29.60
2018-05-24T14:52:59.212Z,29.80
2018-05-24T14:55:56.281Z,29.70
2018-05-24T14:58:54.083Z,29.30
2018-05-24T15:01:52.007Z,29.40
2018-05-24T15:04:49.931Z,29.30
2018-05-24T15:07:47.072Z,29.30
2018-05-24T15:10:44.991Z,28.90
2018-05-24T15:13:55.026Z,29.40
2018-05-24T15:16:53.007Z,29.80
2018-05-24T15:19:51.683Z,29.60
2018-05-24T15:22:49.055Z,29.70
2018-05-24T15:25:47.129Z,29.90
2018-05-24T15:28:45.066Z,29.80
2018-05-24T15:31:43.182Z,29.70
2018-05-24T15:34:40.595Z,29.20
2018-05-24T15:37:38.613Z,29.20
2018-05-24T15:40:36.429Z,29.80
2018-05-24T15:43:34.457Z,30.00
2018-05-24T15:46:32.682Z,30.10
2018-05-24T15:49:31.555Z,30.30
2018-05-24T15:52:29.647Z,29.90
2018-05-24T15:55:27.855Z,29.90
2018-05-24T15:58:25.445Z,30.00
2018-05-24T16:01:22.490Z,29.90
2018-05-24T16:04:19.536Z,30.10
2018-05-24T16:07:18.424Z,30.30
2018-05-24T16:10:16.116Z,30.00
2018-05-24T16:13:14.596Z,30.10
2018-05-24T16:16:12.418Z,30.30
2018-05-24T16:19:10.301Z,29.80
2018-05-24T16:22:08.259Z,29.80
2018-05-24T16:25:05.930Z,29.60
2018-05-24T16:28:03.097Z,29.60
2018-05-24T16:31:02.099Z,29.70
2018-05-24T16:33:59.762Z,29.60
2018-05-24T16:36:57.758Z,29.40
2018-05-24T16:39:55.744Z,29.60
2018-05-24T16:42:52.814Z,29.20
2018-05-24T16:45:50.519Z,29.30
2018-05-24T16:48:48.332Z,29.40
2018-05-24T16:51:45.357Z,29.70
2018-05-24T16:54:43.300Z,29.70
2018-05-24T16:57:41.157Z,30.00
2018-05-24T17:00:39.105Z,30.20
2018-05-24T17:03:36.152Z,30.10
2018-05-24T17:06:33.202Z,30.30
2018-05-24T17:09:31.082Z,30.70
2018-05-24T17:12:28.214Z,30.90
2018-05-24T17:15:26.255Z,31.20
2018-05-24T17:18:23.448Z,31.10
2018-05-24T17:21:21.465Z,31.10
2018-05-24T17:24:19.290Z,32.20
2018-05-24T17:27:16.973Z,32.50
2018-05-24T17:30:14.888Z,33.00
2018-05-24T17:33:12.639Z,33.60
2018-05-24T17:36:11.660Z,34.20
2018-05-24T17:39:08.759Z,34.20
2018-05-24T17:42:05.853Z,34.00
2018-05-24T17:45:02.881Z,34.40
2018-05-24T17:47:59.974Z,34.60
2018-05-24T17:50:57.120Z,34.50
2018-05-24T17:53:55.043Z,34.80
2018-05-24T17:56:52.335Z,35.00
2018-05-24T17:59:49.509Z,35.10
2018-05-24T18:02:47.671Z,35.10
2018-05-24T18:05:45.508Z,35.50
2018-05-24T18:08:43.479Z,35.50
2018-05-24T18:11:40.720Z,35.50
2018-05-24T18:14:39.721Z,35.80
2018-05-24T18:17:37.680Z,35.90
2018-05-24T18:20:35.724Z,35.80
2018-05-24T18:23:33.713Z,36.00
2018-05-24T18:26:30.753Z,36.20
2018-05-24T18:29:27.789Z,35.70
2018-05-24T18:32:25.861Z,36.10
2018-05-24T18:35:23.032Z,36.10
2018-05-24T18:38:21.509Z,36.60
2018-05-24T18:41:19.948Z,36.60
2018-05-24T18:44:17.108Z,36.60
2018-05-24T18:47:15.105Z,36.80
2018-05-24T18:50:12.857Z,36.60
2018-05-24T18:53:10.978Z,37.00
2018-05-24T18:56:08.937Z,37.10
2018-05-24T18:59:06.891Z,37.10
2018-05-24T19:02:04.814Z,37.10
2018-05-24T19:05:02.605Z,37.10
2018-05-24T19:08:00.483Z,37.30
2018-05-24T19:10:58.444Z,37.50
2018-05-24T19:13:56.416Z,37.80
2018-05-24T19:16:54.266Z,38.00
2018-05-24T19:19:51.463Z,37.90
2018-05-24T19:22:49.377Z,37.80
2018-05-24T19:25:46.493Z,37.80
2018-05-24T19:28:45.487Z,37.10
2018-05-24T19:31:43.248Z,37.10
2018-05-24T19:34:40.507Z,37.80
2018-05-24T19:37:38.343Z,37.60
2018-05-24T19:40:36.300Z,37.60
2018-05-24T19:43:34.203Z,38.00
2018-05-24T19:46:33.294Z,38.00
2018-05-24T19:49:31.253Z,38.10
2018-05-24T19:52:29.221Z,38.60
2018-05-24T19:55:27.227Z,38.90
2018-05-24T19:58:24.336Z,39.30
2018-05-24T20:01:21.619Z,39.30
2018-05-24T20:04:18.925Z,39.60
2018-05-24T20:07:16.082Z,40.00
2018-05-24T20:10:13.967Z,40.60
2018-05-24T20:13:12.006Z,41.70
2018-05-24T20:16:09.116Z,41.70
2018-05-24T20:19:07.118Z,42.20
2018-05-24T20:22:05.031Z,42.60
2018-05-24T20:25:02.631Z,42.80
2018-05-24T20:28:00.623Z,43.30
2018-05-24T20:30:59.478Z,43.70
2018-05-24T20:33:57.486Z,44.00
2018-05-24T20:36:54.448Z,44.40
2018-05-24T20:39:52.350Z,45.00
2018-05-24T20:42:50.189Z,45.30
2018-05-24T20:45:47.543Z,45.90
2018-05-24T20:48:45.432Z,46.20
2018-05-24T20:51:43.097Z,46.70
2018-05-24T20:54:40.079Z,46.70
2018-05-24T20:57:37.843Z,46.40
2018-05-24T21:00:35.820Z,46.40
2018-05-24T21:03:33.654Z,46.80
2018-05-24T21:06:31.565Z,46.80
2018-05-24T21:09:30.358Z,47.10
2018-05-24T21:12:28.038Z,47.10
2018-05-24T21:15:25.814Z,47.50
2018-05-24T21:18:23.787Z,48.20
2018-05-24T21:21:21.395Z,48.50
2018-05-24T21:24:20.033Z,50.00
2018-05-24T21:27:17.095Z,49.30
2018-05-24T21:30:15.155Z,49.70
2018-05-24T21:33:13.141Z,50.00
2018-05-24T21:36:11.232Z,50.90
2018-05-24T21:39:09.027Z,50.80
2018-05-24T21:42:06.907Z,51.20
2018-05-24T21:45:04.875Z,51.40
2018-05-24T21:48:02.704Z,51.80
2018-05-24T21:50:59.954Z,52.10
2018-05-24T21:53:57.595Z,52.60
2018-05-24T21:56:55.662Z,53.80
2018-05-24T21:59:53.563Z,53.70
2018-05-24T22:02:51.426Z,53.70
2018-05-24T22:05:48.503Z,53.40
2018-05-24T22:08:46.451Z,53.20
2018-05-24T22:11:43.618Z,53.00
2018-05-24T22:14:41.443Z,52.50
2018-05-24T22:17:38.633Z,52.80
2018-05-24T22:20:36.667Z,52.60
2018-05-24T22:23:34.609Z,52.60
2018-05-24T22:26:32.633Z,52.20
2018-05-24T22:29:30.747Z,52.60
2018-05-24T22:32:28.725Z,52.90
2018-05-24T22:35:26.496Z,52.90
2018-05-24T22:38:24.327Z,52.60
2018-05-24T22:41:22.346Z,51.80
2018-05-24T22:44:19.267Z,51.70
2018-05-24T22:47:16.307Z,51.60
2018-05-24T22:50:13.562Z,51.90
2018-05-24T22:53:12.170Z,51.50
2018-05-24T22:56:09.572Z,51.50
2018-05-24T22:59:07.486Z,51.20
2018-05-24T23:02:05.485Z,50.70
2018-05-24T23:05:02.450Z,51.10
2018-05-24T23:08:00.186Z,51.30
2018-05-24T23:10:58.112Z,50.90
2018-05-24T23:13:55.075Z,50.90
2018-05-24T23:16:52.210Z,50.80
2018-05-24T23:19:51.040Z,49.90
2018-05-24T23:22:54.145Z,49.70
2018-05-24T23:28:55.593Z,48.40
2018-05-24T23:31:53.712Z,47.60
2018-05-24T23:34:51.638Z,47.60
2018-05-24T23:37:49.409Z,47.70
2018-05-24T23:40:47.333Z,48.40
2018-05-24T23:43:44.429Z,48.20
2018-05-24T23:46:42.441Z,48.40
2018-05-24T23:49:40.283Z,48.20
2018-05-24T23:52:37.880Z,48.70
2018-05-24T23:55:35.165Z,48.70
2018-05-24T23:58:32.971Z,48.20
